Terminal Aerodrome Forecast
Issued by NWS

Home | Current Version | Previous Version | Text Only | Print | Product List | Glossary On
Versions: 1 2 3 4 5 6 7 8 9 10 11 12
000
FTUS43 KIWX 120500 RRA
TAFSBN
TAF
KSBN 120613Z 1206/1306 VRB03KT P6SM BKN120
     FM121400 19008KT P6SM BKN035
     FM121700 20010KT P6SM VCSH BKN040=

USA.gov is the U.S. government's official web portal to all federal, state and local government web resources and services.